createdAt,value
2023-01-08T00:01:59.717Z,1.29
2023-01-08T00:07:01.510Z,1.10
2023-01-08T00:12:03.150Z,1.22
2023-01-08T00:17:05.855Z,1.35
2023-01-08T00:22:07.559Z,1.11
2023-01-08T00:27:09.205Z,1.16
2023-01-08T00:32:10.836Z,1.28
2023-01-08T00:37:12.493Z,1.26
2023-01-08T00:42:14.136Z,1.46
2023-01-08T00:47:15.788Z,1.37
2023-01-08T00:52:17.427Z,1.27
2023-01-08T00:57:19.060Z,1.37
2023-01-08T01:02:20.750Z,1.33
2023-01-08T01:07:22.624Z,1.09
2023-01-08T01:12:24.349Z,1.11
2023-01-08T01:17:25.973Z,1.12
2023-01-08T01:22:27.621Z,1.03
2023-01-08T01:27:29.247Z,1.17
2023-01-08T01:32:31.089Z,1.13
2023-01-08T01:37:32.969Z,1.24
2023-01-08T01:42:40.374Z,1.18
2023-01-08T01:47:42.528Z,1.30
2023-01-08T01:53:03.753Z,1.26
2023-01-08T01:58:13.707Z,1.10
2023-01-08T02:03:16.869Z,1.10
2023-01-08T02:08:28.976Z,0.90
2023-01-08T02:13:34.931Z,0.98
2023-01-08T02:18:48.370Z,0.89
2023-01-08T02:24:03.177Z,1.02
2023-01-08T02:29:08.082Z,1.00
2023-01-08T02:34:10.928Z,1.00
2023-01-08T02:39:23.869Z,1.10
2023-01-08T02:44:37.675Z,0.83
2023-01-08T02:49:42.819Z,0.90
2023-01-08T02:54:46.810Z,0.80
2023-01-08T02:59:50.302Z,0.63
2023-01-08T03:04:57.267Z,0.65
2023-01-08T03:09:59.466Z,0.48
2023-01-08T03:15:06.244Z,0.73
2023-01-08T03:20:11.934Z,0.91
2023-01-08T03:25:15.532Z,0.90
2023-01-08T03:30:19.876Z,0.70
2023-01-08T03:35:24.139Z,0.79
2023-01-08T03:40:37.897Z,0.89
2023-01-08T03:45:46.590Z,1.01
2023-01-08T03:50:49.060Z,1.08
2023-01-08T03:55:50.693Z,1.23
2023-01-08T04:00:52.797Z,1.34
2023-01-08T04:05:54.430Z,1.53
2023-01-08T04:10:56.088Z,1.36
2023-01-08T04:15:58.315Z,1.47
2023-01-08T04:21:00.744Z,1.48
2023-01-08T04:26:08.696Z,1.51
2023-01-08T04:31:10.689Z,1.81
2023-01-08T04:36:12.455Z,1.80
2023-01-08T04:41:14.080Z,1.74
2023-01-08T04:46:15.772Z,1.33
2023-01-08T04:51:17.461Z,1.76
2023-01-08T04:56:19.102Z,1.63
2023-01-08T05:01:23.536Z,1.70
2023-01-08T05:06:26.000Z,1.74
2023-01-08T05:11:27.942Z,1.65
2023-01-08T05:16:29.553Z,1.52
2023-01-08T05:21:31.222Z,1.46
2023-01-08T05:26:32.997Z,1.74
2023-01-08T05:31:35.296Z,1.73
2023-01-08T05:36:36.916Z,1.44
2023-01-08T05:41:38.527Z,1.53
2023-01-08T05:46:40.255Z,1.58
2023-01-08T05:51:41.901Z,1.40
2023-01-08T05:56:46.393Z,1.42
2023-01-08T06:01:48.094Z,1.41
2023-01-08T06:06:49.725Z,1.56
2023-01-08T06:11:51.448Z,1.53
2023-01-08T06:16:53.092Z,1.61
2023-01-08T06:21:54.731Z,1.70
2023-01-08T06:26:56.422Z,1.68
2023-01-08T06:31:58.043Z,1.58
2023-01-08T06:36:59.631Z,1.68
2023-01-08T06:42:01.281Z,1.45
2023-01-08T06:47:02.890Z,1.52
2023-01-08T06:52:04.564Z,1.80
2023-01-08T06:57:06.167Z,1.75
2023-01-08T07:02:13.729Z,2.00
2023-01-08T07:07:15.544Z,2.07
2023-01-08T07:12:17.139Z,2.38
2023-01-08T07:17:18.773Z,2.42
2023-01-08T07:22:21.193Z,2.53
2023-01-08T07:27:22.856Z,2.65
2023-01-08T07:32:24.570Z,2.87
2023-01-08T07:37:26.650Z,3.14
2023-01-08T07:42:28.537Z,3.13
2023-01-08T07:47:30.267Z,3.03
2023-01-08T07:52:31.891Z,3.22
2023-01-08T07:57:33.474Z,3.32
2023-01-08T08:02:36.004Z,3.41
2023-01-08T08:07:37.704Z,3.47
2023-01-08T08:12:39.304Z,3.48
2023-01-08T08:17:45.049Z,3.62
2023-01-08T08:22:46.673Z,4.10
2023-01-08T08:27:48.317Z,3.99
2023-01-08T08:32:49.918Z,4.42
2023-01-08T08:37:51.526Z,4.43
2023-01-08T08:43:01.265Z,4.71
2023-01-08T08:48:06.109Z,4.95
2023-01-08T08:53:08.037Z,4.38
2023-01-08T08:58:12.780Z,5.06
2023-01-08T09:03:15.331Z,5.36
2023-01-08T09:08:16.997Z,5.54
2023-01-08T09:13:18.649Z,5.63
2023-01-08T09:18:20.263Z,5.80
2023-01-08T09:23:21.856Z,5.80
2023-01-08T09:28:23.457Z,5.33
2023-01-08T09:33:25.066Z,5.40
2023-01-08T09:38:29.556Z,5.63
2023-01-08T09:43:35.285Z,5.96
2023-01-08T09:48:39.404Z,6.41
2023-01-08T09:53:43.236Z,6.63
2023-01-08T09:58:54.512Z,6.86
2023-01-08T10:04:04.481Z,6.91
2023-01-08T10:09:08.920Z,7.39
2023-01-08T10:14:27.078Z,7.69
2023-01-08T10:19:29.017Z,8.02
2023-01-08T10:24:32.694Z,8.77
2023-01-08T10:29:34.307Z,9.10
2023-01-08T10:34:49.311Z,9.11
2023-01-08T10:39:52.518Z,9.29
2023-01-08T10:45:07.669Z,9.17
2023-01-08T10:50:22.575Z,9.44
2023-01-08T10:55:27.081Z,9.47
2023-01-08T11:00:33.611Z,9.37
2023-01-08T11:05:37.740Z,9.66
2023-01-08T11:10:39.463Z,9.54
2023-01-08T11:15:41.866Z,9.76
2023-01-08T11:20:44.010Z,9.74
2023-01-08T11:26:02.709Z,9.68
2023-01-08T11:31:36.963Z,9.72
2023-01-08T11:36:49.016Z,9.78
2023-01-08T11:41:53.278Z,9.80
2023-01-08T11:47:13.367Z,9.83
2023-01-08T11:52:23.117Z,9.66
2023-01-08T11:57:46.359Z,9.42
2023-01-08T12:02:56.872Z,9.42
2023-01-08T12:08:12.722Z,9.51
2023-01-08T12:13:32.767Z,9.59
2023-01-08T12:19:07.988Z,9.68
2023-01-08T12:24:29.514Z,9.76
2023-01-08T12:29:31.072Z,9.89
2023-01-08T12:35:00.452Z,9.87
2023-01-08T12:40:18.958Z,9.87
2023-01-08T12:45:27.909Z,9.86
2023-01-08T12:50:49.842Z,9.75
2023-01-08T12:56:01.034Z,9.72
2023-01-08T13:01:26.034Z,9.71
2023-01-08T13:06:27.932Z,9.72
2023-01-08T13:11:33.211Z,9.70
2023-01-08T13:16:40.318Z,9.68
2023-01-08T13:21:50.499Z,9.63
2023-01-08T13:26:52.821Z,9.63
2023-01-08T13:31:54.632Z,9.63
2023-01-08T13:37:00.484Z,9.56
2023-01-08T13:42:17.575Z,9.66
2023-01-08T13:47:31.956Z,9.46
2023-01-08T13:52:41.257Z,9.38
2023-01-08T13:57:48.104Z,9.17
2023-01-08T14:02:55.018Z,8.96
2023-01-08T14:07:59.064Z,8.71
2023-01-08T14:13:08.987Z,8.45
2023-01-08T14:18:13.613Z,8.27
2023-01-08T14:23:23.437Z,8.16
2023-01-08T14:28:25.023Z,8.06
2023-01-08T14:33:33.958Z,7.97
2023-01-08T14:38:36.181Z,7.93
2023-01-08T14:43:47.128Z,7.88
2023-01-08T14:48:49.556Z,7.79
2023-01-08T14:53:56.608Z,7.79
2023-01-08T14:58:59.054Z,7.86
2023-01-08T15:04:27.298Z,7.85
2023-01-08T15:09:34.380Z,7.92
2023-01-08T15:14:37.153Z,7.96
2023-01-08T15:19:48.386Z,7.95
2023-01-08T15:24:58.389Z,7.99
2023-01-08T15:30:00.966Z,7.90
2023-01-08T15:35:14.240Z,7.98
2023-01-08T15:40:15.842Z,7.93
2023-01-08T15:45:20.370Z,8.01
2023-01-08T15:50:22.297Z,7.92
2023-01-08T15:55:25.020Z,7.90
2023-01-08T16:00:26.830Z,7.86
2023-01-08T16:05:29.471Z,7.84
2023-01-08T16:10:32.058Z,7.79
2023-01-08T16:15:33.691Z,7.78
2023-01-08T16:20:35.542Z,7.70
2023-01-08T16:25:39.816Z,7.66
2023-01-08T16:30:42.677Z,7.64
2023-01-08T16:35:44.286Z,7.60
2023-01-08T16:40:45.886Z,7.57
2023-01-08T16:45:48.406Z,7.54
2023-01-08T16:50:50.082Z,7.51
2023-01-08T16:55:51.668Z,7.50
2023-01-08T17:00:53.373Z,7.38
2023-01-08T17:06:00.157Z,7.32
2023-01-08T17:11:06.958Z,7.32
2023-01-08T17:16:11.354Z,7.21
2023-01-08T17:21:14.499Z,7.20
2023-01-08T17:26:20.003Z,7.10
2023-01-08T17:31:21.721Z,7.06
2023-01-08T17:36:26.564Z,7.12
2023-01-08T17:41:46.478Z,7.07
2023-01-08T17:46:48.170Z,6.97
2023-01-08T17:51:50.325Z,6.73
2023-01-08T17:56:53.619Z,6.76
2023-01-08T18:01:55.379Z,6.51
2023-01-08T18:06:57.053Z,6.61
2023-01-08T18:11:58.880Z,6.48
2023-01-08T18:17:00.494Z,6.61
2023-01-08T18:22:02.101Z,6.16
2023-01-08T18:27:04.056Z,6.55
2023-01-08T18:32:06.029Z,6.42
2023-01-08T18:37:07.706Z,6.12
2023-01-08T18:42:28.006Z,6.19
2023-01-08T18:47:30.081Z,5.58
2023-01-08T18:52:31.739Z,5.38
2023-01-08T18:57:33.385Z,5.38
2023-01-08T19:02:35.084Z,5.71
2023-01-08T19:07:36.834Z,5.98
2023-01-08T19:12:39.264Z,6.14
2023-01-08T19:17:40.871Z,6.26
2023-01-08T19:22:42.477Z,6.05
2023-01-08T19:27:44.254Z,5.77
2023-01-08T19:32:48.941Z,5.75
2023-01-08T19:37:50.587Z,5.41
2023-01-08T19:43:10.638Z,5.16
2023-01-08T19:48:12.285Z,5.32
2023-01-08T19:53:14.780Z,5.20
2023-01-08T19:58:18.641Z,4.95
2023-01-08T20:03:29.514Z,5.11
2023-01-08T20:08:31.873Z,5.07
2023-01-08T20:13:36.104Z,4.98
2023-01-08T20:18:38.528Z,4.89
2023-01-08T20:23:40.658Z,4.83
2023-01-08T20:28:44.288Z,4.89
2023-01-08T20:33:46.400Z,4.82
2023-01-08T20:38:52.751Z,4.78
2023-01-08T20:43:57.493Z,4.62
2023-01-08T20:49:03.598Z,4.48
2023-01-08T20:54:08.455Z,4.33
2023-01-08T20:59:10.881Z,4.37
2023-01-08T21:04:12.652Z,4.37
2023-01-08T21:09:16.606Z,4.39
2023-01-08T21:14:18.264Z,4.17
2023-01-08T21:19:19.886Z,4.24
2023-01-08T21:24:21.555Z,4.12
2023-01-08T21:29:23.624Z,4.01
2023-01-08T21:34:26.078Z,4.04
2023-01-08T21:39:27.860Z,3.91
2023-01-08T21:44:48.027Z,3.80
2023-01-08T21:49:50.158Z,3.62
2023-01-08T21:54:52.623Z,3.48
2023-01-08T21:59:54.578Z,3.57
2023-01-08T22:04:56.591Z,3.69
2023-01-08T22:10:00.544Z,3.43
2023-01-08T22:15:02.205Z,3.58
2023-01-08T22:20:06.739Z,3.64
2023-01-08T22:25:09.267Z,3.64
2023-01-08T22:30:11.370Z,3.75
2023-01-08T22:35:13.040Z,3.77
2023-01-08T22:40:14.694Z,3.83
2023-01-08T22:45:16.360Z,3.67
2023-01-08T22:50:18.047Z,3.71
2023-01-08T22:55:19.766Z,3.64
2023-01-08T23:00:21.590Z,3.68
2023-01-08T23:05:23.231Z,3.83
2023-01-08T23:10:24.849Z,3.81
2023-01-08T23:15:26.499Z,3.86
2023-01-08T23:20:28.159Z,3.69
2023-01-08T23:25:31.991Z,3.66
2023-01-08T23:30:33.736Z,3.73
2023-01-08T23:35:35.498Z,3.66
2023-01-08T23:40:37.169Z,3.70
2023-01-08T23:45:39.287Z,3.73
2023-01-08T23:50:40.898Z,3.63
2023-01-08T23:55:42.517Z,3.84
